Garden City, Kansas
Current Conditions -  °F | °C
As of 7:54 PM on Wednesday 17 Dec 2014 (Local Time) from KGCK Reporting Station
Light Snow Light Snow  
Wind Chill: 22°   Ceiling: 400
Heat Index: 31°   Visibility: 3mi
Dew Point: 31°   Wind: 10mph
Humidity: 100%   Direction: 120°ESE
Pressure: 30.03"   Gusts: NA
Location:  37.97°N, 100.87°W
Report Text: KGCK 180154Z 12009KT 3SM -SN BR OVC004 M01/M01 A3003 RMK AO2 SNB36 SLP190 P0000 T10061006
Loading
Personal Weather Stations






























Interactive Weather Map New forecast layout! Learn more

10-Day Weather Forecast

Advertisements
Track Severe Weather on mobile